Time;durP1;ratioP1;P1;durP2;ratioP2;P2;SDS_P1;SDS_P2;PMS_P1;PMS_P2;Temp;Humidity;BMP_temperature;BMP_pressure;BME280_temperature;BME280_humidity;BME280_pressure;Samples;Min_cycle;Max_cycle;Signal;HPM_P1;HPM_P2
2021/05/04 00:01:33;;;;;;;4.65;3.20;;;;;;;8.82;45.00;98531.69;5014528;28;20496;-61
2021/05/04 00:03:59;;;;;;;6.47;3.20;;;;;;;8.88;44.78;98523.75;5015002;28;20025;-61
2021/05/04 00:06:24;;;;;;;4.60;3.17;;;;;;;8.88;45.22;98518.38;5014676;28;20092;-61
2021/05/04 00:08:50;;;;;;;5.90;3.50;;;;;;;8.95;44.95;98508.31;5014587;28;20046;-61
2021/05/04 00:11:15;;;;;;;4.28;3.15;;;;;;;8.92;44.97;98508.84;4996769;28;20088;-61
2021/05/04 00:13:41;;;;;;;7.30;3.30;;;;;;;9.02;44.49;98499.06;5014940;28;20040;-62
2021/05/04 00:16:06;;;;;;;5.75;3.30;;;;;;;8.95;45.18;98486.94;5014427;28;20033;-62
2021/05/04 00:18:32;;;;;;;5.60;3.30;;;;;;;9.05;44.77;98484.38;5014544;28;20029;-61
2021/05/04 00:20:57;;;;;;;6.55;3.53;;;;;;;9.19;44.77;98474.91;5014268;28;20045;-61
2021/05/04 00:23:23;;;;;;;5.43;3.25;;;;;;;9.23;44.16;98469.88;5014647;28;20044;-62
2021/05/04 00:25:48;;;;;;;5.40;3.50;;;;;;;9.13;44.57;98472.44;5014048;28;20045;-62
2021/05/04 00:28:13;;;;;;;4.85;3.15;;;;;;;9.21;44.76;98454.09;5014417;28;20022;-61
2021/05/04 00:30:39;;;;;;;5.95;2.90;;;;;;;9.12;45.09;98450.25;5014121;28;20084;-61
2021/05/04 00:33:04;;;;;;;6.65;2.92;;;;;;;9.06;45.23;98445.88;5014087;28;20376;-61
2021/05/04 00:35:30;;;;;;;4.22;3.00;;;;;;;9.14;45.04;98447.34;5013998;28;20041;-61
2021/05/04 00:37:55;;;;;;;4.13;3.00;;;;;;;9.28;44.48;98440.50;5014317;28;20021;-61
2021/05/04 00:40:21;;;;;;;3.95;2.78;;;;;;;9.37;44.65;98443.53;5013613;28;20473;-62
2021/05/04 00:42:46;;;;;;;5.60;2.70;;;;;;;9.39;44.83;98428.06;5013937;28;20416;-61
2021/05/04 00:45:12;;;;;;;4.47;2.70;;;;;;;9.40;44.73;98413.59;5013483;28;20030;-61
2021/05/04 00:47:37;;;;;;;6.05;2.97;;;;;;;9.55;43.77;98404.91;5012915;28;20028;-61
2021/05/04 00:50:04;;;;;;;3.83;2.80;;;;;;;9.60;43.93;98403.06;5013803;28;20030;-61
2021/05/04 00:52:29;;;;;;;4.28;2.55;;;;;;;9.77;43.54;98397.56;5013892;28;20022;-61
2021/05/04 00:54:56;;;;;;;6.45;2.85;;;;;;;9.82;42.99;98394.13;4996517;28;20018;-61
2021/05/04 00:57:21;;;;;;;4.40;3.00;;;;;;;9.88;42.95;98393.09;4995943;28;20125;-61
2021/05/04 00:59:47;;;;;;;4.50;2.90;;;;;;;9.88;43.26;98382.38;4996276;28;20600;-61
2021/05/04 01:02:12;;;;;;;14.27;3.10;;;;;;;9.98;43.21;98374.41;4995927;28;20088;-62
2021/05/04 01:04:38;;;;;;;3.60;2.60;;;;;;;10.15;42.52;98366.22;5014326;28;20022;-61
2021/05/04 01:07:04;;;;;;;8.52;2.65;;;;;;;10.00;42.80;98364.25;4995732;28;20038;-62
2021/05/04 01:09:29;;;;;;;5.20;2.80;;;;;;;10.14;42.52;98349.34;5013753;28;20034;-62
2021/05/04 01:11:57;;;;;;;4.25;2.50;;;;;;;10.13;43.04;98337.03;5013344;28;20088;-61
2021/05/04 01:14:23;;;;;;;7.93;2.90;;;;;;;10.29;42.33;98329.09;4996184;28;20018;-61
2021/05/04 01:16:49;;;;;;;6.32;2.60;;;;;;;10.42;41.75;98336.63;5013185;28;20034;-61
2021/05/04 01:19:16;;;;;;;4.85;2.60;;;;;;;10.34;42.01;98323.75;4996217;28;20080;-62
2021/05/04 01:21:42;;;;;;;3.78;2.58;;;;;;;10.26;42.55;98313.50;5013054;28;20038;-61
2021/05/04 01:24:08;;;;;;;5.13;2.80;;;;;;;10.32;42.47;98317.84;4995580;28;20021;-61
2021/05/04 01:26:34;;;;;;;4.18;2.60;;;;;;;10.46;41.77;98308.25;5012966;28;20075;-62
2021/05/04 01:28:59;;;;;;;6.20;2.63;;;;;;;10.43;42.14;98299.91;4995801;28;20393;-62
2021/05/04 01:31:24;;;;;;;5.57;2.72;;;;;;;10.49;41.53;98298.88;5012987;28;20485;-61
2021/05/04 01:33:50;;;;;;;3.88;2.47;;;;;;;10.43;42.00;98292.69;5013182;28;20428;-61
2021/05/04 01:36:16;;;;;;;4.82;2.60;;;;;;;10.35;41.88;98272.56;5011524;28;20038;-62
2021/05/04 01:38:42;;;;;;;5.43;2.63;;;;;;;10.45;41.88;98285.19;5013007;28;20026;-61
2021/05/04 01:41:07;;;;;;;5.15;2.40;;;;;;;10.37;42.38;98285.72;5012855;28;20084;-61
2021/05/04 01:43:33;;;;;;;3.95;2.42;;;;;;;10.44;42.05;98275.56;5013262;28;20049;-61
2021/05/04 01:45:58;;;;;;;3.83;2.60;;;;;;;10.40;41.72;98282.50;5012905;28;20045;-62
2021/05/04 01:48:23;;;;;;;3.50;2.30;;;;;;;10.45;42.08;98276.34;5013224;28;20021;-61
2021/05/04 01:50:49;;;;;;;3.67;2.30;;;;;;;10.43;42.03;98276.59;5012827;28;20084;-61
2021/05/04 01:53:14;;;;;;;5.18;2.80;;;;;;;10.49;42.03;98259.50;4995523;28;20026;-61
2021/05/04 01:55:40;;;;;;;6.22;2.88;;;;;;;10.53;41.45;98282.00;5012630;28;20038;-61
2021/05/04 01:58:05;;;;;;;5.38;2.47;;;;;;;10.54;41.38;98272.91;5013058;28;20026;-61
2021/05/04 02:00:30;;;;;;;4.30;2.67;;;;;;;10.49;41.79;98259.50;5012674;28;20050;-61
2021/05/04 02:02:56;;;;;;;5.35;2.92;;;;;;;10.53;41.67;98252.53;5013080;28;20519;-61
2021/05/04 02:05:21;;;;;;;4.65;2.08;;;;;;;10.52;41.62;98242.88;5012545;28;20038;-61
2021/05/04 02:07:47;;;;;;;5.05;2.40;;;;;;;10.55;41.37;98239.66;5012754;28;20046;-61
2021/05/04 02:10:12;;;;;;;5.97;2.50;;;;;;;10.50;41.88;98233.50;4994887;28;20460;-61
2021/05/04 02:12:39;;;;;;;4.80;2.40;;;;;;;10.48;41.53;98228.44;5013123;28;20512;-61
2021/05/04 02:15:05;;;;;;;6.93;2.30;;;;;;;10.48;41.80;98220.38;4978713;28;20030;-61
2021/05/04 02:17:31;;;;;;;6.32;2.40;;;;;;;10.57;41.58;98228.69;5012843;28;20080;-61
2021/05/04 02:19:56;;;;;;;8.10;2.42;;;;;;;10.56;41.22;98217.16;4995200;28;20110;-61
2021/05/04 02:22:22;;;;;;;4.07;2.25;;;;;;;10.46;41.94;98230.56;5012338;28;20034;-61
2021/05/04 02:24:49;;;;;;;5.40;2.50;;;;;;;10.48;41.73;98208.84;5012824;28;20037;-61
2021/05/04 02:27:14;;;;;;;3.95;2.40;;;;;;;10.50;42.22;98207.50;5012517;28;20498;-62
2021/05/04 02:29:39;;;;;;;4.10;2.50;;;;;;;10.55;41.88;98209.41;5012865;28;20026;-61
2021/05/04 02:32:05;;;;;;;3.92;2.35;;;;;;;10.53;41.93;98190.09;5012309;28;20038;-61
2021/05/04 02:34:30;;;;;;;3.58;2.50;;;;;;;10.60;41.22;98205.91;5012748;28;20038;-61
2021/05/04 02:36:56;;;;;;;4.22;2.42;;;;;;;10.62;41.03;98198.41;5012119;28;20038;-61
2021/05/04 02:39:21;;;;;;;4.85;2.47;;;;;;;10.57;41.94;98200.00;4994944;28;20030;-61
2021/05/04 02:41:46;;;;;;;4.90;2.20;;;;;;;10.47;41.91;98189.28;5012223;28;20113;-62
2021/05/04 02:44:12;;;;;;;3.95;2.50;;;;;;;10.53;41.84;98195.44;5012355;28;20037;-61
2021/05/04 02:46:37;;;;;;;5.57;2.50;;;;;;;10.50;41.69;98191.44;5011983;28;20493;-61
2021/05/04 02:49:03;;;;;;;8.05;2.40;;;;;;;10.41;42.23;98185.03;4994965;28;20029;-61
2021/05/04 02:51:28;;;;;;;5.50;2.47;;;;;;;10.41;41.93;98168.94;5012027;28;20396;-61
2021/05/04 02:53:55;;;;;;;6.35;2.55;;;;;;;10.39;42.14;98179.13;5012603;28;20030;-61
2021/05/04 02:56:20;;;;;;;6.05;2.38;;;;;;;10.36;42.33;98169.75;5012087;28;20521;-61
2021/05/04 02:58:46;;;;;;;6.65;2.55;;;;;;;10.36;42.05;98179.66;4994810;28;20029;-61
2021/05/04 03:01:11;;;;;;;3.53;2.15;;;;;;;10.35;42.19;98180.72;5012043;28;20049;-61
2021/05/04 03:03:37;;;;;;;7.47;2.20;;;;;;;10.32;41.72;98178.56;5012520;28;20026;-61
2021/05/04 03:06:03;;;;;;;3.92;2.47;;;;;;;10.24;42.04;98160.31;4994237;28;20026;-61
2021/05/04 03:08:29;;;;;;;9.77;2.58;;;;;;;10.29;41.80;98179.09;5015597;28;20366;-61
2021/05/04 03:10:55;;;;;;;6.78;2.25;;;;;;;10.21;41.92;98167.03;5015648;28;20045;-61
2021/05/04 03:13:28;;;;;;;3.70;2.40;;;;;;;10.17;41.97;98178.53;5016023;28;20039;-61
2021/05/04 03:15:53;;;;;;;3.97;2.25;;;;;;;10.19;42.50;98177.19;5015357;28;20128;-61
2021/05/04 03:18:19;;;;;;;7.18;2.65;;;;;;;10.14;42.63;98180.66;5015829;28;20094;-61
2021/05/04 03:20:45;;;;;;;3.80;2.10;;;;;;;10.09;42.11;98175.28;4997644;28;20045;-61
2021/05/04 03:23:10;;;;;;;6.45;2.40;;;;;;;10.04;42.43;98182.50;5014614;28;20060;-61
2021/05/04 03:25:36;;;;;;;3.05;2.13;;;;;;;10.01;42.08;98197.22;5015227;28;20053;-61
2021/05/04 03:28:01;;;;;;;3.50;2.25;;;;;;;10.04;41.86;98179.84;5014587;28;20133;-61
2021/05/04 03:30:27;;;;;;;5.00;2.20;;;;;;;9.97;42.00;98181.97;5015320;28;20037;-61
2021/05/04 03:32:52;;;;;;;10.18;2.20;;;;;;;9.94;42.24;98188.63;5015598;28;20030;-61
2021/05/04 03:35:18;;;;;;;4.57;2.30;;;;;;;9.87;42.61;98182.72;4997915;28;20030;-61
2021/05/04 03:37:44;;;;;;;5.95;2.20;;;;;;;9.89;42.56;98175.25;5015534;28;20096;-61
2021/05/04 03:40:10;;;;;;;3.90;2.20;;;;;;;9.85;42.22;98164.25;5014851;28;20029;-61
2021/05/04 03:42:35;;;;;;;4.45;2.17;;;;;;;9.82;41.96;98139.91;5014117;28;20030;-61
2021/05/04 03:45:01;;;;;;;5.40;2.20;;;;;;;9.80;42.01;98128.66;5014980;28;20387;-61
2021/05/04 03:47:30;;;;;;;3.22;2.00;;;;;;;9.78;41.79;98122.75;5014870;28;20476;-61
2021/05/04 03:49:55;;;;;;;3.50;2.17;;;;;;;9.79;41.53;98140.44;5014085;28;20105;-61
2021/05/04 03:52:20;;;;;;;3.22;2.10;;;;;;;9.76;41.93;98139.09;5014834;28;20042;-61
2021/05/04 03:54:46;;;;;;;4.05;1.98;;;;;;;9.76;42.30;98140.94;5015884;28;20033;-61
2021/05/04 03:57:12;;;;;;;4.05;2.30;;;;;;;9.68;44.02;98140.41;5015153;28;20480;-61
2021/05/04 03:59:37;;;;;;;3.13;2.10;;;;;;;9.57;44.50;98145.97;5013907;28;20044;-61
2021/05/04 04:02:02;;;;;;;9.38;2.42;;;;;;;9.45;43.46;98120.25;5014000;28;20476;-61
2021/05/04 04:04:29;;;;;;;3.90;2.00;;;;;;;9.37;45.01;98125.31;5015081;28;20026;-61
2021/05/04 04:06:54;;;;;;;5.60;1.83;;;;;;;9.20;47.14;98141.53;5029664;28;20424;-61
2021/05/04 04:09:20;;;;;;;6.35;2.30;;;;;;;9.11;48.35;98133.22;5014641;28;20049;-61
2021/05/04 04:11:46;;;;;;;9.68;2.30;;;;;;;8.97;49.81;98137.41;5014427;28;20528;-62
2021/05/04 04:14:11;;;;;;;5.32;2.20;;;;;;;8.83;50.87;98148.53;5014777;28;20021;-61
2021/05/04 04:16:37;;;;;;;2.53;1.90;;;;;;;8.70;51.29;98156.19;5014388;28;20042;-61
2021/05/04 04:19:02;;;;;;;4.40;1.90;;;;;;;8.58;53.72;98146.47;5014461;28;20471;-61
2021/05/04 04:21:28;;;;;;;5.05;2.30;;;;;;;8.48;52.88;98129.56;5014362;28;20034;-63
2021/05/04 04:23:53;;;;;;;3.30;2.25;;;;;;;8.26;55.97;98165.13;4997123;28;20387;-61
2021/05/04 04:26:19;;;;;;;3.90;2.42;;;;;;;8.09;57.27;98145.78;5014217;28;20030;-62
2021/05/04 04:28:44;;;;;;;4.18;2.45;;;;;;;7.95;58.97;98177.38;4996682;28;20084;-62
2021/05/04 04:31:09;;;;;;;3.42;2.10;;;;;;;7.97;58.37;98154.72;5014090;28;20045;-61
2021/05/04 04:33:35;;;;;;;5.15;2.67;;;;;;;7.82;59.95;98149.25;5014297;28;20030;-63
2021/05/04 04:36:00;;;;;;;4.90;2.30;;;;;;;7.83;61.36;98160.72;5028835;28;20026;-63
2021/05/04 04:38:26;;;;;;;4.55;2.40;;;;;;;7.57;62.29;98128.44;5014456;28;20036;-63
2021/05/04 04:40:51;;;;;;;5.50;2.33;;;;;;;7.46;62.34;98132.84;5013800;28;20041;-64
2021/05/04 04:43:17;;;;;;;3.33;2.20;;;;;;;7.41;64.13;98143.41;5013279;28;20070;-64
2021/05/04 04:45:42;;;;;;;5.60;2.50;;;;;;;7.29;65.35;98134.78;5014186;28;20068;-63
2021/05/04 04:48:08;;;;;;;2.58;2.00;;;;;;;7.21;65.84;98127.19;5014152;28;20021;-63
2021/05/04 04:50:34;;;;;;;5.90;2.45;;;;;;;7.07;67.01;98127.56;5013829;28;20042;-63
2021/05/04 04:52:59;;;;;;;3.58;2.08;;;;;;;6.99;67.57;98149.31;5014105;28;20025;-63
2021/05/04 04:55:25;;;;;;;4.55;2.30;;;;;;;6.90;68.85;98153.44;5013709;28;20064;-63
2021/05/04 04:57:50;;;;;;;3.10;2.17;;;;;;;6.79;69.98;98154.31;5012861;28;20025;-62
2021/05/04 05:00:16;;;;;;;3.25;2.08;;;;;;;6.66;70.27;98155.47;5013519;28;20452;-63
2021/05/04 05:02:41;;;;;;;4.05;2.30;;;;;;;6.67;70.08;98149.09;5013810;28;20044;-63
2021/05/04 05:05:07;;;;;;;4.72;2.17;;;;;;;6.60;71.39;98159.91;5013751;28;20033;-63
2021/05/04 05:07:33;;;;;;;6.25;2.38;;;;;;;6.58;70.60;98150.53;5013609;28;20432;-64
2021/05/04 05:09:58;;;;;;;4.43;2.22;;;;;;;6.44;71.41;98156.19;4996425;28;20042;-63
2021/05/04 05:12:25;;;;;;;4.03;2.17;;;;;;;6.42;71.88;98157.50;5013615;28;20153;-63
2021/05/04 05:14:52;;;;;;;4.20;2.10;;;;;;;6.45;71.29;98157.81;4996771;28;20030;-62
2021/05/04 05:17:18;;;;;;;3.67;2.28;;;;;;;6.37;72.43;98171.53;5013291;28;20117;-62
2021/05/04 05:19:43;;;;;;;3.25;2.13;;;;;;;6.31;73.87;98179.66;4996020;28;20033;-63
2021/05/04 05:22:09;;;;;;;5.18;2.20;;;;;;;6.33;72.55;98169.56;5013310;28;20378;-61
2021/05/04 05:24:35;;;;;;;4.50;2.10;;;;;;;6.22;73.20;98163.28;5013766;28;20088;-62
2021/05/04 05:27:01;;;;;;;3.25;2.28;;;;;;;6.07;74.29;98147.06;4995820;28;20034;-62
2021/05/04 05:29:29;;;;;;;5.07;2.50;;;;;;;6.02;75.06;98147.78;5013253;28;20048;-62
2021/05/04 05:31:55;;;;;;;3.58;2.28;;;;;;;5.96;75.40;98141.53;5011558;28;20039;-62
2021/05/04 05:34:20;;;;;;;4.35;2.53;;;;;;;6.03;76.08;98138.72;5013581;28;20045;-62
2021/05/04 05:36:46;;;;;;;7.03;2.40;;;;;;;6.10;74.41;98136.72;5013121;28;20108;-62
2021/05/04 05:39:11;;;;;;;7.10;2.65;;;;;;;6.10;74.14;98139.38;4995930;28;20099;-64
2021/05/04 05:41:36;;;;;;;3.97;2.33;;;;;;;6.03;73.98;98133.41;4995439;28;20034;-63
2021/05/04 05:44:03;;;;;;;5.47;2.13;;;;;;;6.11;73.16;98130.34;5013367;28;20021;-62
2021/05/04 05:46:30;;;;;;;5.15;2.45;;;;;;;6.10;73.23;98154.56;5012880;28;20037;-62
2021/05/04 05:48:58;;;;;;;4.15;2.25;;;;;;;6.08;71.99;98128.19;4995743;28;20032;-64
2021/05/04 05:51:24;;;;;;;3.65;2.05;;;;;;;6.11;71.69;98129.56;5012798;28;20034;-62
2021/05/04 05:53:49;;;;;;;5.13;2.20;;;;;;;6.10;72.24;98127.94;5013247;28;20036;-62
2021/05/04 05:56:15;;;;;;;3.35;2.00;;;;;;;6.10;71.92;98149.22;5012825;28;20064;-62
2021/05/04 05:58:40;;;;;;;3.85;1.80;;;;;;;6.17;71.57;98144.56;5013302;28;20030;-62
2021/05/04 06:01:06;;;;;;;5.35;2.45;;;;;;;6.11;71.60;98133.00;5012708;28;20041;-62
2021/05/04 06:03:32;;;;;;;4.85;2.95;;;;;;;6.12;71.41;98155.94;5013461;28;20022;-63
2021/05/04 06:05:58;;;;;;;6.38;4.15;;;;;;;6.10;72.27;98152.69;5011638;28;20392;-62
2021/05/04 06:08:23;;;;;;;6.03;2.55;;;;;;;6.07;71.89;98142.53;5013023;28;20049;-62
2021/05/04 06:10:49;;;;;;;10.35;7.63;;;;;;;6.12;70.32;98153.28;5012763;28;20038;-62
2021/05/04 06:13:14;;;;;;;10.55;4.05;;;;;;;6.14;70.79;98151.19;5013181;28;20473;-63
2021/05/04 06:15:40;;;;;;;5.53;2.50;;;;;;;6.12;69.45;98147.16;4995005;28;20552;-63
2021/05/04 06:18:06;;;;;;;1.75;1.63;;;;;;;6.15;69.78;98144.00;5013161;28;20350;-63
2021/05/04 06:20:32;;;;;;;4.90;2.53;;;;;;;6.15;69.14;98136.00;5012741;28;20034;-63
2021/05/04 06:22:57;;;;;;;4.05;2.60;;;;;;;6.12;69.84;98149.81;5013246;28;20167;-63
2021/05/04 06:25:23;;;;;;;3.10;2.10;;;;;;;6.31;69.46;98145.06;5012764;28;20038;-63
2021/05/04 06:27:48;;;;;;;4.20;1.90;;;;;;;6.23;68.61;98144.41;5013070;28;20036;-62
2021/05/04 06:30:14;;;;;;;7.75;2.03;;;;;;;6.17;69.25;98118.75;5012493;28;20033;-63
2021/05/04 06:32:41;;;;;;;3.40;2.25;;;;;;;6.26;68.82;98120.00;5011683;28;20030;-62
2021/05/04 06:35:07;;;;;;;5.07;2.88;;;;;;;6.30;69.67;98122.97;5012627;28;20022;-63
2021/05/04 06:37:33;;;;;;;4.90;2.92;;;;;;;6.22;69.58;98108.22;5011927;28;20026;-62
2021/05/04 06:39:58;;;;;;;3.60;2.47;;;;;;;6.20;70.13;98128.91;5011655;28;20492;-62
2021/05/04 06:42:24;;;;;;;6.53;4.10;;;;;;;6.19;70.28;98137.97;5013932;28;20030;-63
2021/05/04 06:44:49;;;;;;;9.73;6.63;;;;;;;6.16;70.20;98111.81;5016712;28;20026;-62
2021/05/04 06:47:15;;;;;;;11.57;9.32;;;;;;;6.11;70.83;98106.41;4998458;28;20096;-63
2021/05/04 06:49:41;;;;;;;6.43;4.53;;;;;;;6.15;70.86;98112.88;4998936;28;20472;-62
2021/05/04 06:52:06;;;;;;;10.65;6.85;;;;;;;6.14;70.28;98105.13;4998335;28;20485;-62
2021/05/04 06:54:32;;;;;;;7.47;4.75;;;;;;;6.15;71.10;98110.22;5016590;28;20122;-62
2021/05/04 06:56:58;;;;;;;6.70;3.47;;;;;;;6.16;71.12;98106.50;4998295;28;20436;-62
2021/05/04 06:59:23;;;;;;;3.67;2.00;;;;;;;6.13;70.65;98104.31;5016260;28;20461;-62
2021/05/04 07:01:49;;;;;;;5.53;3.35;;;;;;;6.13;71.61;98112.31;4998193;28;20045;-62
2021/05/04 07:04:15;;;;;;;3.72;1.77;;;;;;;6.09;70.98;98105.88;5016428;28;20022;-62
2021/05/04 07:06:40;;;;;;;3.13;2.05;;;;;;;6.10;71.63;98112.78;5015737;28;20034;-63
2021/05/04 07:09:06;;;;;;;5.10;2.00;;;;;;;6.05;71.29;98096.75;5014787;28;20463;-63
2021/05/04 07:11:32;;;;;;;3.08;1.75;;;;;;;6.04;71.42;98092.44;4998011;28;20516;-63
2021/05/04 07:13:58;;;;;;;2.90;1.73;;;;;;;6.02;71.59;98113.19;5005907;28;20054;-63
2021/05/04 07:16:23;;;;;;;3.17;2.00;;;;;;;6.05;71.92;98104.72;4995579;28;20077;-62
2021/05/04 07:18:49;;;;;;;3.40;2.00;;;;;;;5.96;72.42;98117.59;4978304;28;20026;-63
2021/05/04 07:21:14;;;;;;;3.63;2.10;;;;;;;5.99;72.38;98105.66;4995509;28;20477;-62
2021/05/04 07:23:41;;;;;;;4.50;2.00;;;;;;;6.05;72.59;98094.88;4978483;28;20026;-61
2021/05/04 07:26:06;;;;;;;2.40;1.90;;;;;;;6.11;72.93;98102.94;4995444;28;20442;-62
2021/05/04 07:28:32;;;;;;;3.53;2.00;;;;;;;6.10;72.52;98096.81;5011271;28;20034;-61
2021/05/04 07:30:57;;;;;;;4.97;2.28;;;;;;;6.09;72.79;98105.88;4995566;28;20049;-63
2021/05/04 07:33:23;;;;;;;4.43;2.30;;;;;;;5.99;72.93;98108.31;4962907;28;20036;-61
2021/05/04 07:35:48;;;;;;;6.57;3.78;;;;;;;6.03;73.79;98098.84;4994279;28;20038;-61
2021/05/04 07:38:15;;;;;;;5.07;2.70;;;;;;;5.93;73.56;98082.69;4996114;28;20084;-61
2021/05/04 07:40:40;;;;;;;15.90;9.18;;;;;;;6.02;73.95;98073.28;4995440;28;20042;-62
2021/05/04 07:43:06;;;;;;;16.05;8.93;;;;;;;6.14;73.33;98095.31;5010830;28;20030;-61
2021/05/04 07:45:32;;;;;;;4.95;2.83;;;;;;;6.11;73.07;98089.66;4995498;28;20042;-62
2021/05/04 07:47:59;;;;;;;3.97;2.60;;;;;;;6.20;72.89;98080.22;4994602;28;20430;-62
2021/05/04 07:50:24;;;;;;;6.65;3.63;;;;;;;6.48;72.11;98081.97;4995308;28;20046;-62
2021/05/04 07:52:50;;;;;;;3.38;2.00;;;;;;;6.45;72.16;98071.81;4978212;28;20113;-63
2021/05/04 07:55:15;;;;;;;7.70;5.13;;;;;;;6.56;71.78;98080.75;4995278;28;20126;-61
2021/05/04 07:57:41;;;;;;;4.45;2.90;;;;;;;6.56;71.98;98076.22;4978174;28;20023;-61
2021/05/04 08:00:07;;;;;;;3.55;2.50;;;;;;;6.55;72.05;98082.63;4977819;28;20034;-61
2021/05/04 08:02:32;;;;;;;6.32;2.88;;;;;;;6.54;71.87;98083.69;4978271;28;20037;-62
2021/05/04 08:04:58;;;;;;;4.32;2.17;;;;;;;6.40;72.46;98074.41;4995819;28;20158;-61
2021/05/04 08:07:23;;;;;;;6.55;2.63;;;;;;;6.35;72.77;98069.00;4994902;28;20058;-61
2021/05/04 08:09:52;;;;;;;4.28;2.50;;;;;;;6.39;72.85;98086.09;4995412;28;20033;-61
2021/05/04 08:12:17;;;;;;;2.58;1.80;;;;;;;6.35;72.48;98066.34;4994824;28;20543;-61
2021/05/04 08:14:45;;;;;;;4.07;2.58;;;;;;;6.43;72.70;98068.59;4995234;28;20030;-61
2021/05/04 08:17:14;;;;;;;3.75;1.88;;;;;;;6.46;72.34;98070.75;4994740;28;20045;-61
2021/05/04 08:19:39;;;;;;;4.22;3.00;;;;;;;6.58;72.15;98076.81;4995082;28;20392;-61
2021/05/04 08:22:05;;;;;;;4.05;2.10;;;;;;;6.57;72.47;98077.06;4994704;28;20042;-61
2021/05/04 08:24:30;;;;;;;5.13;3.10;;;;;;;6.76;71.45;98061.59;4994957;28;20362;-62
2021/05/04 08:26:56;;;;;;;2.80;1.80;;;;;;;6.59;72.44;98073.09;4977198;28;20043;-62
2021/05/04 08:29:21;;;;;;;3.08;1.90;;;;;;;6.56;72.05;98078.91;4995017;28;20130;-62
2021/05/04 08:31:46;;;;;;;2.08;1.85;;;;;;;6.64;72.36;98070.50;4994485;28;20049;-62
2021/05/04 08:34:12;;;;;;;5.72;2.33;;;;;;;6.75;72.07;98070.66;4994895;28;20022;-61
2021/05/04 08:36:37;;;;;;;2.97;1.88;;;;;;;6.84;71.75;98066.50;4976991;28;20038;-62
2021/05/04 08:39:03;;;;;;;6.95;3.22;;;;;;;7.03;71.42;98067.81;4977383;28;20037;-62
2021/05/04 08:41:29;;;;;;;3.85;2.38;;;;;;;7.07;71.11;98058.28;4994206;28;20494;-62
2021/05/04 08:43:54;;;;;;;4.10;2.78;;;;;;;7.08;71.28;98065.22;4995066;28;20056;-62
2021/05/04 08:46:21;;;;;;;4.05;2.30;;;;;;;7.02;71.87;98060.09;5010607;28;20501;-61
2021/05/04 08:48:47;;;;;;;3.58;2.15;;;;;;;6.92;71.65;98066.09;5014127;28;20021;-61
2021/05/04 08:51:12;;;;;;;1.80;1.50;;;;;;;7.02;71.29;98065.41;4996131;28;20107;-62
2021/05/04 08:53:38;;;;;;;2.90;1.80;;;;;;;7.07;71.09;98038.84;4996394;28;20301;-62
2021/05/04 08:56:04;;;;;;;3.63;2.13;;;;;;;7.05;72.30;98033.75;5013501;28;20065;-62
2021/05/04 08:58:31;;;;;;;3.85;1.90;;;;;;;7.09;71.58;98013.56;4996749;28;20041;-61
2021/05/04 09:00:56;;;;;;;3.83;2.05;;;;;;;7.24;71.50;98068.88;5013509;28;20454;-62
2021/05/04 09:03:38;;;;;;;3.78;2.10;;;;;;;7.18;71.40;98063.72;5014090;28;20030;-61
2021/05/04 09:06:11;;;;;;;2.38;1.80;;;;;;;7.23;71.15;98066.44;4996330;28;20129;-61
2021/05/04 09:14:05;;;;;;;3.80;2.00;;;;;;;7.44;70.95;98064.81;5012592;28;20333;-61
2021/05/04 09:21:29;;;;;;;2.92;1.85;;;;;;;8.28;68.91;98064.25;5013437;28;20042;-62
2021/05/04 09:23:54;;;;;;;2.33;1.80;;;;;;;8.30;68.29;98058.66;5013625;28;20224;-62
2021/05/04 09:26:22;;;;;;;4.75;2.00;;;;;;;8.26;67.81;98055.69;5013023;28;20512;-62
2021/05/04 09:28:51;;;;;;;5.50;3.28;;;;;;;8.29;68.84;98065.88;5013696;28;20029;-61
2021/05/04 09:31:23;;;;;;;4.97;3.15;;;;;;;8.04;68.93;98055.81;5013302;28;20050;-62
2021/05/04 09:33:49;;;;;;;10.35;6.85;;;;;;;8.21;69.00;98060.97;5013789;28;20048;-61
2021/05/04 09:36:40;;;;;;;5.25;2.63;;;;;;;8.15;68.75;98062.81;5013046;28;20492;-61
2021/05/04 09:39:06;;;;;;;3.97;2.05;;;;;;;8.08;68.61;98067.56;5013394;28;20034;-62
2021/05/04 09:41:32;;;;;;;7.30;4.80;;;;;;;8.30;68.68;98061.34;5013165;28;20156;-62
2021/05/04 09:43:57;;;;;;;6.82;2.88;;;;;;;8.47;68.37;98074.56;5013366;28;20077;-61
2021/05/04 09:46:48;;;;;;;3.40;1.80;;;;;;;8.71;67.31;98058.94;5012829;28;20030;-62
2021/05/04 09:49:36;;;;;;;2.55;1.77;;;;;;;8.53;68.46;98052.97;5013188;28;20034;-62
2021/05/04 09:52:35;;;;;;;3.65;2.08;;;;;;;8.63;67.44;98060.25;5012624;28;20041;-60
2021/05/04 09:55:02;;;;;;;9.15;4.63;;;;;;;8.82;67.17;98053.41;5013293;28;20049;-61
2021/05/04 09:57:32;;;;;;;8.93;4.32;;;;;;;8.75;66.85;98038.69;5012830;28;20484;-60
2021/05/04 09:59:57;;;;;;;4.77;2.50;;;;;;;8.60;67.80;98063.44;5013067;28;20037;-60
2021/05/04 10:02:23;;;;;;;4.35;2.25;;;;;;;8.94;67.33;98047.06;5012723;28;20045;-61
2021/05/04 10:04:51;;;;;;;3.83;2.08;;;;;;;8.75;67.38;98050.16;5012991;28;20053;-60
2021/05/04 10:07:16;;;;;;;3.28;2.03;;;;;;;8.70;67.76;98050.13;5010388;28;20053;-63
2021/05/04 10:09:41;;;;;;;4.00;2.15;;;;;;;8.82;66.76;98045.41;4995844;28;20030;-62
2021/05/04 10:12:07;;;;;;;3.47;1.67;;;;;;;8.79;67.31;98045.91;5012665;28;20092;-62
2021/05/04 10:14:34;;;;;;;3.15;2.03;;;;;;;9.19;65.92;98039.13;5011790;28;20030;-62
2021/05/04 10:17:00;;;;;;;6.00;4.03;;;;;;;9.35;66.50;98029.28;4998396;28;20115;-61
2021/05/04 10:19:25;;;;;;;7.65;2.15;;;;;;;9.25;65.99;98032.72;5015734;28;20387;-61
2021/05/04 10:21:50;;;;;;;3.90;2.45;;;;;;;9.35;65.70;98021.25;5016814;28;20034;-61
2021/05/04 10:24:16;;;;;;;4.50;2.35;;;;;;;9.94;64.34;98018.13;4999746;28;20477;-63
2021/05/04 10:26:41;;;;;;;4.60;2.15;;;;;;;9.64;65.15;98018.13;4999086;28;20444;-61
2021/05/04 10:29:08;;;;;;;3.85;2.20;;;;;;;9.71;65.38;98035.53;4999357;28;20030;-61
2021/05/04 10:31:35;;;;;;;3.67;2.22;;;;;;;9.74;66.60;98030.72;5015804;28;20038;-61
2021/05/04 10:34:25;;;;;;;1.60;1.50;;;;;;;9.42;67.28;98024.50;5016662;28;20473;-61
2021/05/04 10:36:52;;;;;;;4.45;2.47;;;;;;;9.82;65.20;98030.97;5016517;28;20104;-61
2021/05/04 10:39:43;;;;;;;4.15;1.80;;;;;;;10.01;65.23;98009.84;4999081;28;20101;-61
2021/05/04 10:42:09;;;;;;;;;;;;;;;10.05;64.52;98026.16;5016500;28;20500;-61
2021/05/04 10:44:56;;;;;;;3.22;2.28;;;;;;;10.14;65.41;98038.75;5016805;28;20005;-61
2021/05/04 10:47:42;;;;;;;2.03;1.80;;;;;;;9.68;67.98;98025.34;5005412;28;20034;-61
2021/05/04 10:50:22;;;;;;;3.72;2.42;;;;;;;9.94;66.21;98038.75;4996426;28;20077;-61
2021/05/04 10:52:48;;;;;;;4.18;2.22;;;;;;;9.87;66.70;98038.22;4996796;28;20429;-61
2021/05/04 10:55:13;;;;;;;3.83;2.20;;;;;;;10.36;63.84;98027.78;4996380;28;20026;-60
2021/05/04 10:58:01;;;;;;;4.90;2.58;;;;;;;10.42;63.92;98039.28;4996819;28;20022;-60
2021/05/04 11:03:30;;;;;;;2.58;1.80;;;;;;;10.39;65.20;98037.16;4991255;28;20384;-61
2021/05/04 11:06:05;;;;;;;2.72;1.80;;;;;;;10.78;63.64;98025.81;4996367;28;20093;-63
2021/05/04 11:08:43;;;;;;;2.40;1.90;;;;;;;10.55;63.37;98036.03;4991815;28;20078;-60
2021/05/04 11:11:28;;;;;;;3.20;1.90;;;;;;;10.25;65.25;98033.38;4976647;28;20034;-62
2021/05/04 11:13:54;;;;;;;3.50;2.00;;;;;;;10.29;65.79;98029.94;4976996;28;20019;-62
2021/05/04 11:16:48;;;;;;;6.32;2.40;;;;;;;10.46;65.11;98035.00;4976481;28;20045;-62
2021/05/04 11:19:18;;;;;;;4.13;2.00;;;;;;;10.64;64.56;98035.50;4976715;28;20568;-60
2021/05/04 11:21:50;;;;;;;3.28;1.83;;;;;;;10.76;64.62;98044.06;4976430;28;20490;-61
2021/05/04 11:24:16;;;;;;;3.83;2.05;;;;;;;11.29;62.44;98032.84;4976949;28;20114;-61
2021/05/04 11:26:49;;;;;;;3.13;2.20;;;;;;;12.25;60.11;98046.72;4975873;28;20053;-62
2021/05/04 11:29:15;;;;;;;5.38;3.50;;;;;;;12.33;59.79;98026.50;4976322;28;20035;-62
2021/05/04 11:31:43;;;;;;;5.95;3.22;;;;;;;12.62;58.65;98035.34;4976286;28;20508;-61
2021/05/04 11:34:36;;;;;;;4.72;2.28;;;;;;;13.20;56.71;98036.31;4976621;28;20038;-62
2021/05/04 11:37:03;;;;;;;2.13;1.63;;;;;;;13.58;55.77;98037.19;4976408;28;20039;-61
2021/05/04 11:39:28;;;;;;;5.97;1.65;;;;;;;13.49;56.16;98015.50;4975376;28;20477;-61
2021/05/04 11:41:58;;;;;;;2.72;1.80;;;;;;;14.07;54.49;98035.09;5007633;28;20039;-62
2021/05/04 11:44:33;;;;;;;2.63;1.65;;;;;;;13.94;53.98;98025.88;4976537;28;20106;-61
2021/05/04 11:47:17;;;;;;;2.20;1.40;;;;;;;13.68;53.73;98006.59;5007295;28;20039;-62
2021/05/04 11:49:43;;;;;;;4.68;2.20;;;;;;;13.76;53.69;98001.38;4976352;28;20031;-62
2021/05/04 11:52:09;;;;;;;3.40;1.52;;;;;;;13.21;56.02;98009.13;4975778;28;20378;-62